createdAt,value
2023-04-19T00:01:51.466Z,14.68
2023-04-19T00:04:18.400Z,14.00
2023-04-19T00:06:46.388Z,13.80
2023-04-19T00:09:13.025Z,15.05
2023-04-19T00:11:39.587Z,10.50
2023-04-19T00:14:06.075Z,11.38
2023-04-19T00:16:32.618Z,15.15
2023-04-19T00:18:59.158Z,13.77
2023-04-19T00:21:26.609Z,12.48
2023-04-19T00:23:54.182Z,10.70
2023-04-19T00:26:20.944Z,12.30
2023-04-19T00:28:47.438Z,11.50
2023-04-19T00:31:13.953Z,14.77
2023-04-19T00:33:40.522Z,16.27
2023-04-19T00:36:07.185Z,10.82
2023-04-19T00:38:33.667Z,16.67
2023-04-19T00:41:00.203Z,15.52
2023-04-19T00:43:26.711Z,11.48
2023-04-19T00:45:53.831Z,18.52
2023-04-19T00:48:20.559Z,16.38
2023-04-19T00:50:47.143Z,16.77
2023-04-19T00:53:13.678Z,16.88
2023-04-19T00:55:40.251Z,20.52
2023-04-19T00:58:08.464Z,12.45
2023-04-19T01:00:35.234Z,23.02
2023-04-19T01:03:01.944Z,17.10
2023-04-19T01:05:28.598Z,22.77
2023-04-19T01:07:55.069Z,16.40
2023-04-19T01:10:21.643Z,15.70
2023-04-19T01:12:48.156Z,20.83
2023-04-19T01:15:14.623Z,15.38
2023-04-19T01:17:41.653Z,28.77
2023-04-19T01:20:08.728Z,18.83
2023-04-19T01:22:37.786Z,15.52
2023-04-19T01:25:04.976Z,18.15
2023-04-19T01:27:31.592Z,18.70
2023-04-19T01:29:58.109Z,21.13
2023-04-19T01:32:26.489Z,18.05
2023-04-19T01:34:53.215Z,17.08
2023-04-19T01:37:19.792Z,16.73
2023-04-19T01:39:46.576Z,17.60
2023-04-19T01:42:13.147Z,20.00
2023-04-19T01:44:39.674Z,17.88
2023-04-19T01:47:06.301Z,22.73
2023-04-19T01:49:32.858Z,23.40
2023-04-19T01:51:59.355Z,17.50
2023-04-19T01:54:25.909Z,18.20
2023-04-19T01:56:52.464Z,19.58
2023-04-19T01:59:18.966Z,17.75
2023-04-19T02:01:45.547Z,19.75
2023-04-19T02:04:12.180Z,18.77
2023-04-19T02:06:38.747Z,16.05
2023-04-19T02:09:05.303Z,13.25
2023-04-19T02:11:31.841Z,12.65
2023-04-19T02:13:58.319Z,14.40
2023-04-19T02:16:24.806Z,13.85
2023-04-19T02:18:52.195Z,11.60
2023-04-19T02:21:18.743Z,13.43
2023-04-19T02:23:45.284Z,12.05
2023-04-19T02:26:13.089Z,15.52
2023-04-19T02:28:39.573Z,17.92
2023-04-19T02:31:06.597Z,13.00
2023-04-19T02:33:33.091Z,15.05
2023-04-19T02:35:59.628Z,12.98
2023-04-19T02:38:26.144Z,17.27
2023-04-19T02:40:52.682Z,13.75
2023-04-19T02:43:19.204Z,11.40
2023-04-19T02:45:46.013Z,11.77
2023-04-19T02:48:12.706Z,12.02
2023-04-19T02:50:39.274Z,7.07
2023-04-19T02:53:06.036Z,9.23
2023-04-19T02:55:33.280Z,13.38
2023-04-19T02:57:59.813Z,9.05
2023-04-19T03:00:26.344Z,8.57
2023-04-19T03:02:53.008Z,12.25
2023-04-19T03:05:19.776Z,11.02
2023-04-19T03:07:46.256Z,10.20
2023-04-19T03:10:12.743Z,8.63
2023-04-19T03:12:39.274Z,9.65
2023-04-19T03:15:06.510Z,6.57
2023-04-19T03:17:33.074Z,8.55
2023-04-19T03:19:59.574Z,7.43
2023-04-19T03:22:26.127Z,8.40
2023-04-19T03:24:52.634Z,9.30
2023-04-19T03:27:19.187Z,16.25
2023-04-19T03:29:47.289Z,11.38
2023-04-19T03:32:15.398Z,11.20
2023-04-19T03:34:41.895Z,12.85
2023-04-19T03:37:08.419Z,19.20
2023-04-19T03:39:34.904Z,21.10
2023-04-19T03:42:01.683Z,16.50
2023-04-19T03:44:28.204Z,22.42
2023-04-19T03:46:54.737Z,22.75
2023-04-19T03:49:21.252Z,17.48
2023-04-19T03:51:47.754Z,14.05
2023-04-19T03:54:14.481Z,11.98
2023-04-19T03:56:41.258Z,24.25
2023-04-19T03:59:07.757Z,9.32
2023-04-19T04:01:34.309Z,14.40
2023-04-19T04:04:04.072Z,13.20
2023-04-19T04:06:31.366Z,10.95
2023-04-19T04:08:57.866Z,15.18
2023-04-19T04:11:25.813Z,17.23
2023-04-19T04:13:52.308Z,9.27
2023-04-19T04:16:18.873Z,5.68
2023-04-19T04:18:45.493Z,11.40
2023-04-19T04:21:12.142Z,10.02
2023-04-19T04:23:38.660Z,5.68
2023-04-19T04:26:06.232Z,5.60
2023-04-19T04:28:33.503Z,7.03
2023-04-19T04:31:00.368Z,6.85
2023-04-19T04:33:27.909Z,10.73
2023-04-19T04:35:55.013Z,8.23
2023-04-19T04:38:24.909Z,9.75
2023-04-19T04:40:55.162Z,12.55
2023-04-19T04:43:25.868Z,14.75
2023-04-19T04:45:55.641Z,15.13
2023-04-19T04:48:22.459Z,13.13
2023-04-19T04:50:49.083Z,13.18
2023-04-19T04:53:15.756Z,13.02
2023-04-19T04:55:42.300Z,18.75
2023-04-19T04:58:08.882Z,37.95
2023-04-19T05:00:35.519Z,16.20
2023-04-19T05:03:03.225Z,36.03
2023-04-19T05:05:30.082Z,28.58
2023-04-19T05:07:56.618Z,18.73
2023-04-19T05:10:23.169Z,10.60
2023-04-19T05:12:49.673Z,16.52
2023-04-19T05:15:16.207Z,10.15
2023-04-19T05:17:43.533Z,13.55
2023-04-19T05:20:10.384Z,8.48
2023-04-19T05:22:37.338Z,13.18
2023-04-19T05:25:03.962Z,10.40
2023-04-19T05:27:30.548Z,13.23
2023-04-19T05:29:57.063Z,9.68
2023-04-19T05:32:23.612Z,7.78
2023-04-19T05:34:50.200Z,12.10
2023-04-19T05:37:16.673Z,17.05
2023-04-19T05:39:44.454Z,13.13
2023-04-19T05:42:11.349Z,16.67
2023-04-19T05:44:37.867Z,10.00
2023-04-19T05:47:04.428Z,14.57
2023-04-19T05:49:31.059Z,10.52
2023-04-19T05:51:57.688Z,7.85
2023-04-19T05:54:24.207Z,11.13
2023-04-19T05:56:50.696Z,12.60
2023-04-19T05:59:17.337Z,10.20
2023-04-19T06:01:44.056Z,11.48
2023-04-19T06:04:10.799Z,10.15
2023-04-19T06:06:38.262Z,12.48
2023-04-19T06:09:04.941Z,12.18
2023-04-19T06:11:38.916Z,9.07
2023-04-19T06:14:14.522Z,12.65
2023-04-19T06:16:41.769Z,10.57
2023-04-19T06:19:08.386Z,13.65
2023-04-19T06:21:35.178Z,15.85
2023-04-19T06:24:01.779Z,12.63
2023-04-19T06:26:28.450Z,12.50
2023-04-19T06:28:55.027Z,12.02
2023-04-19T06:31:21.667Z,11.65
2023-04-19T06:33:48.241Z,11.38
2023-04-19T06:36:14.862Z,12.60
2023-04-19T06:38:47.143Z,12.18
2023-04-19T06:41:13.736Z,13.30
2023-04-19T06:43:41.024Z,16.17
2023-04-19T06:46:07.786Z,14.65
2023-04-19T06:48:35.031Z,13.05
2023-04-19T06:51:01.609Z,16.48
2023-04-19T06:53:28.180Z,15.90
2023-04-19T06:56:02.000Z,12.48
2023-04-19T06:58:29.104Z,10.70
2023-04-19T07:00:56.061Z,16.38
2023-04-19T07:03:22.820Z,11.25
2023-04-19T07:05:49.754Z,12.73
2023-04-19T07:08:16.245Z,9.57
2023-04-19T07:10:43.958Z,13.23
2023-04-19T07:13:13.379Z,11.55
2023-04-19T07:15:40.018Z,13.05
2023-04-19T07:18:07.034Z,15.82
2023-04-19T07:20:34.038Z,11.13
2023-04-19T07:23:00.920Z,12.63
2023-04-19T07:25:27.536Z,10.93
2023-04-19T07:27:54.881Z,12.85
2023-04-19T07:30:21.442Z,12.43
2023-04-19T07:32:48.208Z,14.35
2023-04-19T07:35:14.942Z,12.77
2023-04-19T07:37:42.246Z,10.10
2023-04-19T07:40:09.072Z,9.82
2023-04-19T07:42:35.619Z,12.43
2023-04-19T07:45:02.190Z,13.15
2023-04-19T07:47:28.866Z,15.40
2023-04-19T07:49:56.096Z,13.18
2023-04-19T07:52:22.577Z,11.02
2023-04-19T07:54:49.186Z,10.52
2023-04-19T07:57:15.696Z,12.80
2023-04-19T07:59:42.216Z,10.30
2023-04-19T08:02:08.923Z,11.30
2023-04-19T08:04:35.758Z,12.45
2023-04-19T08:07:04.235Z,12.43
2023-04-19T08:09:30.877Z,9.57
2023-04-19T08:11:57.794Z,10.27
2023-04-19T08:14:37.443Z,7.75
2023-04-19T08:19:34.301Z,13.38
2023-04-19T08:22:00.836Z,9.40
2023-04-19T08:24:27.403Z,9.80
2023-04-19T08:26:54.360Z,7.25
2023-04-19T08:29:22.272Z,7.72
2023-04-19T08:31:48.828Z,8.30
2023-04-19T08:34:15.339Z,7.68
2023-04-19T08:36:51.572Z,7.72
2023-04-19T08:39:31.755Z,8.45
2023-04-19T08:42:07.498Z,7.43
2023-04-19T08:44:48.890Z,5.63
2023-04-19T08:47:30.277Z,4.82
2023-04-19T08:50:09.156Z,6.63
2023-04-19T08:52:54.811Z,6.90
2023-04-19T08:55:23.803Z,5.15
2023-04-19T08:57:50.727Z,7.45
2023-04-19T09:00:17.554Z,6.70
2023-04-19T09:02:44.720Z,5.70
2023-04-19T09:05:15.358Z,4.78
2023-04-19T09:07:42.512Z,6.35
2023-04-19T09:10:10.700Z,4.97
2023-04-19T09:12:37.580Z,4.80
2023-04-19T09:15:04.879Z,6.78
2023-04-19T09:17:31.784Z,4.10
2023-04-19T09:19:58.738Z,8.20
2023-04-19T09:22:25.338Z,8.50
2023-04-19T09:25:30.074Z,11.13
2023-04-19T09:27:39.541Z,6.20
2023-04-19T09:30:06.738Z,3.88
2023-04-19T09:32:48.274Z,4.25
2023-04-19T09:35:15.153Z,4.57
2023-04-19T09:40:24.133Z,5.93
2023-04-19T09:45:29.857Z,4.15
2023-04-19T09:48:04.781Z,3.92
2023-04-19T09:50:32.194Z,9.90
2023-04-19T09:53:00.352Z,5.93
2023-04-19T09:55:29.017Z,6.93
2023-04-19T09:57:56.416Z,6.53
2023-04-19T10:00:23.177Z,5.05
2023-04-19T10:02:55.966Z,5.55
2023-04-19T10:05:24.195Z,7.10
2023-04-19T10:07:51.242Z,6.07
2023-04-19T10:10:20.716Z,7.55
2023-04-19T10:15:21.570Z,7.13
2023-04-19T10:17:48.377Z,6.18
2023-04-19T10:20:20.636Z,7.47
2023-04-19T10:22:47.356Z,6.10
2023-04-19T10:25:15.654Z,4.60
2023-04-19T10:27:51.935Z,4.32
2023-04-19T10:30:27.124Z,4.18
2023-04-19T10:32:56.377Z,5.18
2023-04-19T10:35:29.406Z,7.50
2023-04-19T10:38:09.091Z,4.90
2023-04-19T10:40:57.857Z,3.85
2023-04-19T10:43:25.265Z,6.85
2023-04-19T10:45:52.100Z,5.80
2023-04-19T10:48:33.653Z,5.60
2023-04-19T10:51:04.529Z,5.45
2023-04-19T10:53:43.799Z,3.95
2023-04-19T10:56:10.536Z,6.15
2023-04-19T10:58:55.996Z,4.22
2023-04-19T11:01:40.812Z,5.75
2023-04-19T11:04:10.229Z,4.47
2023-04-19T11:06:37.729Z,6.22
2023-04-19T11:09:05.757Z,6.40
2023-04-19T11:11:38.279Z,6.35
2023-04-19T11:14:08.140Z,4.70
2023-04-19T11:16:45.838Z,8.45
2023-04-19T11:19:19.610Z,6.50
2023-04-19T11:21:46.634Z,5.40
2023-04-19T11:24:13.473Z,6.38
2023-04-19T11:26:42.447Z,6.05
2023-04-19T11:29:09.542Z,6.18
2023-04-19T11:31:36.341Z,4.00
2023-04-19T11:34:03.116Z,4.85
2023-04-19T11:36:29.707Z,5.18
2023-04-19T11:38:56.279Z,5.30
2023-04-19T11:41:22.760Z,8.43
2023-04-19T11:43:49.279Z,5.18
2023-04-19T11:46:15.948Z,6.28
2023-04-19T11:48:52.903Z,4.78
2023-04-19T11:51:19.678Z,4.32
2023-04-19T11:53:46.443Z,6.03
2023-04-19T11:56:15.323Z,6.35
2023-04-19T11:58:48.160Z,5.25
2023-04-19T12:01:14.835Z,3.60
2023-04-19T12:03:47.762Z,6.55
2023-04-19T12:06:19.179Z,3.15
2023-04-19T12:08:47.359Z,4.70
2023-04-19T12:11:14.556Z,9.52
2023-04-19T12:13:42.189Z,5.07
2023-04-19T12:16:08.912Z,5.72
2023-04-19T12:18:45.308Z,8.25
2023-04-19T12:21:23.676Z,4.22
2023-04-19T12:23:51.121Z,4.80
2023-04-19T12:26:17.654Z,5.55
2023-04-19T12:28:44.175Z,5.20
2023-04-19T12:31:11.239Z,4.93
2023-04-19T12:33:37.934Z,4.03
2023-04-19T12:36:04.589Z,5.45
2023-04-19T12:38:31.262Z,4.38
2023-04-19T12:40:57.808Z,5.18
2023-04-19T12:43:24.325Z,6.78
2023-04-19T12:45:50.884Z,4.40
2023-04-19T12:48:17.386Z,4.32
2023-04-19T12:50:43.942Z,4.80
2023-04-19T12:53:10.645Z,8.05
2023-04-19T12:55:37.362Z,3.05
2023-04-19T12:58:03.927Z,3.00
2023-04-19T13:00:30.443Z,4.30
2023-04-19T13:02:57.152Z,2.92
2023-04-19T13:05:23.842Z,4.55
2023-04-19T13:07:50.504Z,3.38
2023-04-19T13:10:17.070Z,4.82
2023-04-19T13:12:43.946Z,3.45
2023-04-19T13:15:10.811Z,4.82
2023-04-19T13:17:38.083Z,4.07
2023-04-19T13:20:06.482Z,3.25
2023-04-19T13:22:33.035Z,4.43
2023-04-19T13:24:59.519Z,5.32
2023-04-19T13:27:26.119Z,3.83
2023-04-19T13:29:54.610Z,3.92
2023-04-19T13:32:21.168Z,5.57
2023-04-19T13:34:47.868Z,3.30
2023-04-19T13:37:14.884Z,4.30
2023-04-19T13:39:41.373Z,4.93
2023-04-19T13:42:07.936Z,4.55
2023-04-19T13:44:34.422Z,3.08
2023-04-19T13:47:01.121Z,3.13
2023-04-19T13:49:27.799Z,2.72
2023-04-19T13:51:54.371Z,3.30
2023-04-19T13:54:21.417Z,5.03
2023-04-19T13:56:50.527Z,5.25
2023-04-19T13:59:18.654Z,3.35
2023-04-19T14:01:45.148Z,3.60
2023-04-19T14:04:11.893Z,4.28
2023-04-19T14:06:38.627Z,3.15
2023-04-19T14:09:05.336Z,3.33
2023-04-19T14:11:32.317Z,2.88
2023-04-19T14:13:58.859Z,3.78
2023-04-19T14:16:25.744Z,3.65
2023-04-19T14:18:52.736Z,2.78
2023-04-19T14:21:19.562Z,4.25
2023-04-19T14:23:46.168Z,3.35
2023-04-19T14:26:12.804Z,4.90
2023-04-19T14:28:39.329Z,4.47
2023-04-19T14:31:06.358Z,4.45
2023-04-19T14:33:32.865Z,4.70
2023-04-19T14:35:59.418Z,2.13
2023-04-19T14:38:25.939Z,4.38
2023-04-19T14:40:52.429Z,4.57
2023-04-19T14:43:18.948Z,4.75
2023-04-19T14:45:47.949Z,5.20
2023-04-19T14:48:14.476Z,4.07
2023-04-19T14:50:41.005Z,6.20
2023-04-19T14:53:07.480Z,6.95
2023-04-19T14:55:34.074Z,3.90
2023-04-19T14:58:00.606Z,4.75
2023-04-19T15:00:27.398Z,2.75
2023-04-19T15:02:54.061Z,2.63
2023-04-19T15:05:22.435Z,2.85
2023-04-19T15:07:49.069Z,3.00
2023-04-19T15:10:15.687Z,3.70
2023-04-19T15:12:42.243Z,3.13
2023-04-19T15:15:08.945Z,3.22
2023-04-19T15:17:35.859Z,4.22
2023-04-19T15:20:02.436Z,3.58
2023-04-19T15:22:29.024Z,2.65
2023-04-19T15:24:55.661Z,3.58
2023-04-19T15:27:22.136Z,3.45
2023-04-19T15:29:48.735Z,3.15
2023-04-19T15:32:15.840Z,3.47
2023-04-19T15:34:42.333Z,3.50
2023-04-19T15:37:08.962Z,2.97
2023-04-19T15:39:35.549Z,4.05
2023-04-19T15:42:02.227Z,4.70
2023-04-19T15:44:29.024Z,3.13
2023-04-19T15:46:56.224Z,2.95
2023-04-19T15:49:22.887Z,3.10
2023-04-19T15:51:49.370Z,6.22
2023-04-19T15:54:15.919Z,4.43
2023-04-19T15:56:42.554Z,4.13
2023-04-19T15:59:09.081Z,4.57
2023-04-19T16:01:36.260Z,5.53
2023-04-19T16:04:04.092Z,3.70
2023-04-19T16:06:30.813Z,2.88
2023-04-19T16:08:57.342Z,3.15
2023-04-19T16:11:24.036Z,2.60
2023-04-19T16:13:50.735Z,2.42
2023-04-19T16:16:17.258Z,2.22
2023-04-19T16:18:43.806Z,2.70
2023-04-19T16:21:10.850Z,3.03
2023-04-19T16:23:37.425Z,3.55
2023-04-19T16:26:04.048Z,3.67
2023-04-19T16:28:30.743Z,2.55
2023-04-19T16:30:57.284Z,4.93
2023-04-19T16:33:23.898Z,3.40
2023-04-19T16:35:50.431Z,3.47
2023-04-19T16:38:17.007Z,3.10
2023-04-19T16:40:46.359Z,2.80
2023-04-19T16:43:12.870Z,3.45
2023-04-19T16:45:39.734Z,2.90
2023-04-19T16:48:06.336Z,3.63
2023-04-19T16:50:32.940Z,5.22
2023-04-19T16:52:59.482Z,3.63
2023-04-19T16:55:25.978Z,6.28
2023-04-19T16:57:53.788Z,3.22
2023-04-19T17:00:20.462Z,4.72
2023-04-19T17:02:47.093Z,2.45
2023-04-19T17:05:16.104Z,2.70
2023-04-19T17:07:43.506Z,3.85
2023-04-19T17:10:10.115Z,2.72
2023-04-19T17:12:36.664Z,5.20
2023-04-19T17:15:03.424Z,4.57
2023-04-19T17:17:29.983Z,3.83
2023-04-19T17:19:57.652Z,3.78
2023-04-19T17:22:24.303Z,5.10
2023-04-19T17:24:50.891Z,7.45
2023-04-19T17:27:17.373Z,4.72
2023-04-19T17:29:43.876Z,4.00
2023-04-19T17:32:10.917Z,3.17
2023-04-19T17:34:37.680Z,3.30
2023-04-19T17:37:04.374Z,3.33
2023-04-19T17:39:30.951Z,4.22
2023-04-19T17:41:57.601Z,3.40
2023-04-19T17:44:24.148Z,5.07
2023-04-19T17:46:50.797Z,4.05
2023-04-19T17:49:19.124Z,2.70
2023-04-19T17:51:46.356Z,3.28
2023-04-19T17:54:13.145Z,3.90
2023-04-19T17:56:39.668Z,3.20
2023-04-19T17:59:06.247Z,3.35
2023-04-19T18:01:35.127Z,4.35
2023-04-19T18:04:01.964Z,3.83
2023-04-19T18:06:28.680Z,4.95
2023-04-19T18:08:55.237Z,4.10
2023-04-19T18:11:21.729Z,5.63
2023-04-19T18:13:48.269Z,4.38
2023-04-19T18:16:15.883Z,5.10
2023-04-19T18:18:42.508Z,4.35
2023-04-19T18:21:09.816Z,4.32
2023-04-19T18:23:36.363Z,4.97
2023-04-19T18:26:04.080Z,4.40
2023-04-19T18:28:30.653Z,4.68
2023-04-19T18:30:57.195Z,4.15
2023-04-19T18:33:23.757Z,5.03
2023-04-19T18:35:50.319Z,7.53
2023-04-19T18:38:16.988Z,4.57
2023-04-19T18:40:43.474Z,4.63
2023-04-19T18:43:10.179Z,4.28
2023-04-19T18:45:37.179Z,5.45
2023-04-19T18:48:04.018Z,5.60
2023-04-19T18:50:31.130Z,4.63
2023-04-19T18:52:58.536Z,5.78
2023-04-19T18:55:26.666Z,3.85
2023-04-19T18:57:53.246Z,5.20
2023-04-19T19:00:21.762Z,4.75
2023-04-19T19:02:48.517Z,5.78
2023-04-19T19:05:16.222Z,5.70
2023-04-19T19:07:43.143Z,6.95
2023-04-19T19:10:19.406Z,6.07
2023-04-19T19:12:49.131Z,7.68
2023-04-19T19:15:15.943Z,5.97
2023-04-19T19:17:43.355Z,4.72
2023-04-19T19:20:10.260Z,7.38
2023-04-19T19:22:36.905Z,5.53
2023-04-19T19:25:05.032Z,8.43
2023-04-19T19:27:31.526Z,8.20
2023-04-19T19:29:58.937Z,6.57
2023-04-19T19:32:25.577Z,5.50
2023-04-19T19:34:56.574Z,5.05
2023-04-19T19:37:27.519Z,6.47
2023-04-19T19:39:56.424Z,7.85
2023-04-19T19:42:23.342Z,6.05
2023-04-19T19:44:53.273Z,31.83
2023-04-19T19:47:19.878Z,6.57
2023-04-19T19:50:23.782Z,9.85
2023-04-19T19:52:33.140Z,7.45
2023-04-19T19:55:00.114Z,7.05
2023-04-19T19:59:56.986Z,8.68
2023-04-19T20:02:25.030Z,6.93
2023-04-19T20:04:51.861Z,6.07
2023-04-19T20:07:33.251Z,7.13
2023-04-19T20:10:10.568Z,8.15
2023-04-19T20:12:37.315Z,9.73
2023-04-19T20:15:04.135Z,31.50
2023-04-19T20:17:30.804Z,7.43
2023-04-19T20:19:57.311Z,7.60
2023-04-19T20:22:23.833Z,7.38
2023-04-19T20:24:52.853Z,7.40
2023-04-19T20:27:21.288Z,12.20
2023-04-19T20:29:48.561Z,8.38
2023-04-19T20:32:15.139Z,7.78
2023-04-19T20:34:41.758Z,11.48
2023-04-19T20:37:08.295Z,9.82
2023-04-19T20:39:34.782Z,9.40
2023-04-19T20:42:01.518Z,7.72
2023-04-19T20:44:28.746Z,8.38
2023-04-19T20:46:56.202Z,12.23
2023-04-19T20:49:23.252Z,12.75
2023-04-19T20:51:51.564Z,10.52
2023-04-19T20:54:18.537Z,8.93
2023-04-19T20:56:45.132Z,7.10
2023-04-19T20:59:12.325Z,9.40
2023-04-19T21:01:41.583Z,9.00
2023-04-19T21:04:08.818Z,10.68
2023-04-19T21:06:35.557Z,8.77
2023-04-19T21:09:02.280Z,13.60
2023-04-19T21:11:28.779Z,10.40
2023-04-19T21:13:55.301Z,9.10
2023-04-19T21:16:21.871Z,14.48
2023-04-19T21:18:48.377Z,16.60
2023-04-19T21:21:14.870Z,15.45
2023-04-19T21:23:41.501Z,11.55
2023-04-19T21:26:09.023Z,11.15
2023-04-19T21:28:35.559Z,12.40
2023-04-19T21:31:02.658Z,15.85
2023-04-19T21:33:29.253Z,17.20
2023-04-19T21:35:55.923Z,13.60
2023-04-19T21:38:22.416Z,12.70
2023-04-19T21:40:49.558Z,15.25
2023-04-19T21:43:17.388Z,14.93
2023-04-19T21:45:43.883Z,13.10
2023-04-19T21:48:10.386Z,17.77
2023-04-19T21:50:36.915Z,10.35
2023-04-19T21:53:03.448Z,14.20
2023-04-19T21:55:32.353Z,14.38
2023-04-19T21:57:59.037Z,12.18
2023-04-19T22:00:25.677Z,13.25
2023-04-19T22:02:52.453Z,13.15
2023-04-19T22:05:19.130Z,11.32
2023-04-19T22:07:45.690Z,11.75
2023-04-19T22:10:13.796Z,19.25
2023-04-19T22:12:51.317Z,16.15
2023-04-19T22:15:26.004Z,45.63
2023-04-19T22:17:52.561Z,59.30
2023-04-19T22:20:19.115Z,35.05
2023-04-19T22:22:45.768Z,38.58
2023-04-19T22:25:12.355Z,18.27
2023-04-19T22:27:38.924Z,25.25
2023-04-19T22:30:05.731Z,30.67
2023-04-19T22:32:32.263Z,13.75
2023-04-19T22:34:58.752Z,15.23
2023-04-19T22:37:25.233Z,11.82
2023-04-19T22:39:51.881Z,15.38
2023-04-19T22:42:18.458Z,14.93
2023-04-19T22:44:44.988Z,12.52
2023-04-19T22:47:11.957Z,15.93
2023-04-19T22:49:38.472Z,12.48
2023-04-19T22:52:05.002Z,13.05
2023-04-19T22:54:31.483Z,14.93
2023-04-19T22:56:58.485Z,17.70
2023-04-19T22:59:25.093Z,18.70
2023-04-19T23:01:51.706Z,26.17
2023-04-19T23:04:19.998Z,25.33
2023-04-19T23:06:48.753Z,29.25
2023-04-19T23:09:15.873Z,50.70
2023-04-19T23:11:42.620Z,29.65
2023-04-19T23:14:10.504Z,56.75
2023-04-19T23:16:38.823Z,37.75
2023-04-19T23:19:07.151Z,20.02
2023-04-19T23:21:34.154Z,48.20
2023-04-19T23:24:00.733Z,23.55
2023-04-19T23:26:27.250Z,32.38
2023-04-19T23:28:53.761Z,46.67
2023-04-19T23:31:20.448Z,29.63
2023-04-19T23:33:46.989Z,50.78
2023-04-19T23:36:13.464Z,40.75
2023-04-19T23:38:40.001Z,45.25
2023-04-19T23:41:06.684Z,54.95
2023-04-19T23:43:33.174Z,45.42
2023-04-19T23:45:59.709Z,29.20
2023-04-19T23:48:26.426Z,28.00
2023-04-19T23:50:52.903Z,23.00
2023-04-19T23:53:19.433Z,54.58
2023-04-19T23:55:46.231Z,34.33
2023-04-19T23:58:12.816Z,49.25
